sensor_id;sensor_type;location;lat;lon;timestamp;P1;durP1;ratioP1;P2;durP2;ratioP2
39410;SDS011;26579;43.238;23.124;2023-07-29T00:00:42;2.53;;;1.85;;
39410;SDS011;26579;43.238;23.124;2023-07-29T00:03:09;2.10;;;1.30;;
39410;SDS011;26579;43.238;23.124;2023-07-29T00:05:36;4.10;;;2.05;;
39410;SDS011;26579;43.238;23.124;2023-07-29T00:08:03;2.22;;;1.50;;
39410;SDS011;26579;43.238;23.124;2023-07-29T00:10:29;3.08;;;1.50;;
39410;SDS011;26579;43.238;23.124;2023-07-29T00:12:56;2.80;;;1.80;;
39410;SDS011;26579;43.238;23.124;2023-07-29T00:15:22;2.58;;;1.67;;
39410;SDS011;26579;43.238;23.124;2023-07-29T00:17:47;3.53;;;1.80;;
39410;SDS011;26579;43.238;23.124;2023-07-29T00:20:13;3.38;;;1.90;;
39410;SDS011;26579;43.238;23.124;2023-07-29T00:22:39;3.63;;;1.73;;
39410;SDS011;26579;43.238;23.124;2023-07-29T00:25:04;3.95;;;1.55;;
39410;SDS011;26579;43.238;23.124;2023-07-29T00:27:30;3.15;;;1.88;;
39410;SDS011;26579;43.238;23.124;2023-07-29T00:29:56;3.42;;;1.50;;
39410;SDS011;26579;43.238;23.124;2023-07-29T00:32:22;4.18;;;2.00;;
39410;SDS011;26579;43.238;23.124;2023-07-29T00:34:48;3.20;;;1.70;;
39410;SDS011;26579;43.238;23.124;2023-07-29T00:37:13;2.72;;;1.40;;
39410;SDS011;26579;43.238;23.124;2023-07-29T00:39:39;4.05;;;1.55;;
39410;SDS011;26579;43.238;23.124;2023-07-29T00:42:05;2.80;;;1.80;;
39410;SDS011;26579;43.238;23.124;2023-07-29T00:44:31;2.75;;;1.98;;
39410;SDS011;26579;43.238;23.124;2023-07-29T00:47:00;3.03;;;1.60;;
39410;SDS011;26579;43.238;23.124;2023-07-29T00:49:30;3.08;;;1.80;;
39410;SDS011;26579;43.238;23.124;2023-07-29T00:51:56;2.75;;;1.52;;
39410;SDS011;26579;43.238;23.124;2023-07-29T00:54:24;3.58;;;2.17;;
39410;SDS011;26579;43.238;23.124;2023-07-29T00:56:50;3.50;;;2.50;;
39410;SDS011;26579;43.238;23.124;2023-07-29T00:59:16;3.25;;;1.90;;
39410;SDS011;26579;43.238;23.124;2023-07-29T01:01:42;2.78;;;1.42;;
39410;SDS011;26579;43.238;23.124;2023-07-29T01:04:08;2.88;;;1.65;;
39410;SDS011;26579;43.238;23.124;2023-07-29T01:06:41;4.22;;;2.28;;
39410;SDS011;26579;43.238;23.124;2023-07-29T01:12:19;2.45;;;1.80;;
39410;SDS011;26579;43.238;23.124;2023-07-29T01:14:59;3.75;;;1.90;;
39410;SDS011;26579;43.238;23.124;2023-07-29T01:17:36;4.20;;;1.98;;
39410;SDS011;26579;43.238;23.124;2023-07-29T01:20:16;2.40;;;1.60;;
39410;SDS011;26579;43.238;23.124;2023-07-29T01:22:44;3.50;;;1.55;;
39410;SDS011;26579;43.238;23.124;2023-07-29T01:25:10;3.92;;;1.70;;
39410;SDS011;26579;43.238;23.124;2023-07-29T01:27:35;4.20;;;2.20;;
39410;SDS011;26579;43.238;23.124;2023-07-29T01:30:01;2.85;;;1.75;;
39410;SDS011;26579;43.238;23.124;2023-07-29T01:32:33;2.85;;;1.70;;
39410;SDS011;26579;43.238;23.124;2023-07-29T01:35:24;4.38;;;1.80;;
39410;SDS011;26579;43.238;23.124;2023-07-29T01:38:05;2.33;;;1.58;;
39410;SDS011;26579;43.238;23.124;2023-07-29T01:40:35;4.20;;;1.73;;
39410;SDS011;26579;43.238;23.124;2023-07-29T01:43:01;2.47;;;1.63;;
39410;SDS011;26579;43.238;23.124;2023-07-29T01:45:28;3.20;;;1.90;;
39410;SDS011;26579;43.238;23.124;2023-07-29T01:47:54;3.22;;;1.80;;
39410;SDS011;26579;43.238;23.124;2023-07-29T01:50:20;4.80;;;2.17;;
39410;SDS011;26579;43.238;23.124;2023-07-29T01:52:46;2.97;;;1.55;;
39410;SDS011;26579;43.238;23.124;2023-07-29T01:55:12;3.58;;;2.17;;
39410;SDS011;26579;43.238;23.124;2023-07-29T01:57:37;2.88;;;1.67;;
39410;SDS011;26579;43.238;23.124;2023-07-29T02:00:03;3.00;;;1.70;;
39410;SDS011;26579;43.238;23.124;2023-07-29T02:02:40;2.40;;;1.45;;
39410;SDS011;26579;43.238;23.124;2023-07-29T02:05:06;3.05;;;1.90;;
39410;SDS011;26579;43.238;23.124;2023-07-29T02:07:32;3.10;;;1.40;;
39410;SDS011;26579;43.238;23.124;2023-07-29T02:09:58;2.92;;;1.88;;
39410;SDS011;26579;43.238;23.124;2023-07-29T02:12:23;4.32;;;2.10;;
39410;SDS011;26579;43.238;23.124;2023-07-29T02:14:49;3.17;;;2.03;;
39410;SDS011;26579;43.238;23.124;2023-07-29T02:17:15;6.55;;;1.60;;
39410;SDS011;26579;43.238;23.124;2023-07-29T02:19:40;3.15;;;1.80;;
39410;SDS011;26579;43.238;23.124;2023-07-29T02:22:06;2.88;;;1.73;;
39410;SDS011;26579;43.238;23.124;2023-07-29T02:24:32;8.25;;;1.98;;
39410;SDS011;26579;43.238;23.124;2023-07-29T02:26:58;5.65;;;1.80;;
39410;SDS011;26579;43.238;23.124;2023-07-29T02:29:23;3.22;;;2.00;;
39410;SDS011;26579;43.238;23.124;2023-07-29T02:31:49;3.55;;;1.77;;
39410;SDS011;26579;43.238;23.124;2023-07-29T02:34:15;3.85;;;1.77;;
39410;SDS011;26579;43.238;23.124;2023-07-29T02:36:40;2.88;;;1.55;;
39410;SDS011;26579;43.238;23.124;2023-07-29T02:39:06;2.80;;;1.88;;
39410;SDS011;26579;43.238;23.124;2023-07-29T02:41:32;3.63;;;1.90;;
39410;SDS011;26579;43.238;23.124;2023-07-29T02:43:58;2.90;;;1.55;;
39410;SDS011;26579;43.238;23.124;2023-07-29T02:46:24;5.00;;;1.88;;
39410;SDS011;26579;43.238;23.124;2023-07-29T02:48:50;3.65;;;2.17;;
39410;SDS011;26579;43.238;23.124;2023-07-29T02:51:15;4.13;;;2.00;;
39410;SDS011;26579;43.238;23.124;2023-07-29T02:53:41;5.75;;;2.20;;
39410;SDS011;26579;43.238;23.124;2023-07-29T02:56:07;4.10;;;1.80;;
39410;SDS011;26579;43.238;23.124;2023-07-29T02:58:32;3.70;;;1.83;;
39410;SDS011;26579;43.238;23.124;2023-07-29T03:01:02;7.72;;;2.20;;
39410;SDS011;26579;43.238;23.124;2023-07-29T03:03:29;12.88;;;3.00;;
39410;SDS011;26579;43.238;23.124;2023-07-29T03:05:59;3.47;;;1.60;;
39410;SDS011;26579;43.238;23.124;2023-07-29T03:08:25;2.63;;;1.92;;
39410;SDS011;26579;43.238;23.124;2023-07-29T03:10:51;3.28;;;2.00;;
39410;SDS011;26579;43.238;23.124;2023-07-29T03:13:16;2.92;;;1.83;;
39410;SDS011;26579;43.238;23.124;2023-07-29T03:15:42;3.22;;;1.98;;
39410;SDS011;26579;43.238;23.124;2023-07-29T03:18:08;2.88;;;1.70;;
39410;SDS011;26579;43.238;23.124;2023-07-29T03:20:33;3.60;;;2.30;;
39410;SDS011;26579;43.238;23.124;2023-07-29T03:22:59;2.53;;;1.75;;
39410;SDS011;26579;43.238;23.124;2023-07-29T03:25:25;3.22;;;1.90;;
39410;SDS011;26579;43.238;23.124;2023-07-29T03:27:50;3.80;;;1.88;;
39410;SDS011;26579;43.238;23.124;2023-07-29T03:30:19;7.80;;;1.90;;
39410;SDS011;26579;43.238;23.124;2023-07-29T03:32:45;3.17;;;1.73;;
39410;SDS011;26579;43.238;23.124;2023-07-29T03:35:11;4.03;;;2.33;;
39410;SDS011;26579;43.238;23.124;2023-07-29T03:37:37;4.38;;;1.80;;
39410;SDS011;26579;43.238;23.124;2023-07-29T03:40:03;3.50;;;2.40;;
39410;SDS011;26579;43.238;23.124;2023-07-29T03:42:29;3.65;;;2.10;;
39410;SDS011;26579;43.238;23.124;2023-07-29T03:44:55;4.20;;;2.20;;
39410;SDS011;26579;43.238;23.124;2023-07-29T03:47:20;4.38;;;1.98;;
39410;SDS011;26579;43.238;23.124;2023-07-29T03:49:46;4.20;;;1.88;;
39410;SDS011;26579;43.238;23.124;2023-07-29T03:52:13;4.68;;;1.40;;
39410;SDS011;26579;43.238;23.124;2023-07-29T03:54:39;3.10;;;1.88;;
39410;SDS011;26579;43.238;23.124;2023-07-29T03:57:05;8.18;;;2.10;;
39410;SDS011;26579;43.238;23.124;2023-07-29T03:59:31;4.53;;;1.70;;
39410;SDS011;26579;43.238;23.124;2023-07-29T04:01:56;3.38;;;1.90;;
39410;SDS011;26579;43.238;23.124;2023-07-29T04:04:22;3.65;;;1.75;;
39410;SDS011;26579;43.238;23.124;2023-07-29T04:06:48;5.05;;;1.92;;
39410;SDS011;26579;43.238;23.124;2023-07-29T04:09:14;3.63;;;1.58;;
39410;SDS011;26579;43.238;23.124;2023-07-29T04:11:39;2.90;;;2.03;;
39410;SDS011;26579;43.238;23.124;2023-07-29T04:14:05;3.20;;;1.85;;
39410;SDS011;26579;43.238;23.124;2023-07-29T04:16:31;3.13;;;1.95;;
39410;SDS011;26579;43.238;23.124;2023-07-29T04:18:56;5.40;;;1.95;;
39410;SDS011;26579;43.238;23.124;2023-07-29T04:21:22;4.97;;;1.77;;
39410;SDS011;26579;43.238;23.124;2023-07-29T04:23:48;2.10;;;1.33;;
39410;SDS011;26579;43.238;23.124;2023-07-29T04:26:14;3.85;;;1.70;;
39410;SDS011;26579;43.238;23.124;2023-07-29T04:28:39;5.22;;;2.00;;
39410;SDS011;26579;43.238;23.124;2023-07-29T04:31:05;2.67;;;1.80;;
39410;SDS011;26579;43.238;23.124;2023-07-29T04:33:31;3.20;;;1.70;;
39410;SDS011;26579;43.238;23.124;2023-07-29T04:35:57;2.75;;;1.83;;
39410;SDS011;26579;43.238;23.124;2023-07-29T04:38:26;3.50;;;1.85;;
39410;SDS011;26579;43.238;23.124;2023-07-29T04:40:56;6.97;;;2.50;;
39410;SDS011;26579;43.238;23.124;2023-07-29T04:43:22;3.88;;;1.75;;
39410;SDS011;26579;43.238;23.124;2023-07-29T04:45:48;3.85;;;1.98;;
39410;SDS011;26579;43.238;23.124;2023-07-29T04:48:13;2.80;;;1.60;;
39410;SDS011;26579;43.238;23.124;2023-07-29T04:50:39;4.43;;;1.88;;
39410;SDS011;26579;43.238;23.124;2023-07-29T04:53:05;4.00;;;1.95;;
39410;SDS011;26579;43.238;23.124;2023-07-29T04:55:31;2.90;;;1.83;;
39410;SDS011;26579;43.238;23.124;2023-07-29T04:57:56;3.05;;;1.70;;
39410;SDS011;26579;43.238;23.124;2023-07-29T05:00:22;2.65;;;1.58;;
39410;SDS011;26579;43.238;23.124;2023-07-29T05:02:48;3.72;;;2.22;;
39410;SDS011;26579;43.238;23.124;2023-07-29T05:05:13;3.28;;;1.80;;
39410;SDS011;26579;43.238;23.124;2023-07-29T05:07:39;3.65;;;2.33;;
39410;SDS011;26579;43.238;23.124;2023-07-29T05:10:05;5.88;;;1.70;;
39410;SDS011;26579;43.238;23.124;2023-07-29T05:12:31;3.15;;;1.85;;
39410;SDS011;26579;43.238;23.124;2023-07-29T05:14:57;2.70;;;1.40;;
39410;SDS011;26579;43.238;23.124;2023-07-29T05:17:22;2.83;;;1.63;;
39410;SDS011;26579;43.238;23.124;2023-07-29T05:19:48;3.67;;;1.60;;
39410;SDS011;26579;43.238;23.124;2023-07-29T05:22:14;3.85;;;1.60;;
39410;SDS011;26579;43.238;23.124;2023-07-29T05:24:40;4.88;;;1.63;;
39410;SDS011;26579;43.238;23.124;2023-07-29T05:27:05;4.97;;;1.85;;
39410;SDS011;26579;43.238;23.124;2023-07-29T05:29:31;3.42;;;1.73;;
39410;SDS011;26579;43.238;23.124;2023-07-29T05:31:57;2.13;;;1.45;;
39410;SDS011;26579;43.238;23.124;2023-07-29T05:34:23;2.53;;;1.52;;
39410;SDS011;26579;43.238;23.124;2023-07-29T05:36:49;4.18;;;1.90;;
39410;SDS011;26579;43.238;23.124;2023-07-29T05:39:15;3.60;;;2.05;;
39410;SDS011;26579;43.238;23.124;2023-07-29T05:41:40;3.40;;;2.50;;
39410;SDS011;26579;43.238;23.124;2023-07-29T05:44:06;4.22;;;2.15;;
39410;SDS011;26579;43.238;23.124;2023-07-29T05:46:32;4.18;;;2.22;;
39410;SDS011;26579;43.238;23.124;2023-07-29T05:48:57;4.93;;;2.30;;
39410;SDS011;26579;43.238;23.124;2023-07-29T05:51:23;3.90;;;1.85;;
39410;SDS011;26579;43.238;23.124;2023-07-29T05:53:51;4.53;;;2.05;;
39410;SDS011;26579;43.238;23.124;2023-07-29T05:56:17;6.10;;;2.33;;
39410;SDS011;26579;43.238;23.124;2023-07-29T05:58:43;3.10;;;1.90;;
39410;SDS011;26579;43.238;23.124;2023-07-29T06:01:09;2.85;;;1.70;;
39410;SDS011;26579;43.238;23.124;2023-07-29T06:03:35;3.67;;;1.90;;
39410;SDS011;26579;43.238;23.124;2023-07-29T06:06:01;5.57;;;2.13;;
39410;SDS011;26579;43.238;23.124;2023-07-29T06:08:26;7.65;;;3.08;;
39410;SDS011;26579;43.238;23.124;2023-07-29T06:10:52;8.73;;;3.83;;
39410;SDS011;26579;43.238;23.124;2023-07-29T06:13:18;9.07;;;3.92;;
39410;SDS011;26579;43.238;23.124;2023-07-29T06:15:43;5.70;;;3.00;;
39410;SDS011;26579;43.238;23.124;2023-07-29T06:18:09;8.13;;;3.35;;
39410;SDS011;26579;43.238;23.124;2023-07-29T06:20:35;4.70;;;2.97;;
39410;SDS011;26579;43.238;23.124;2023-07-29T06:23:01;6.57;;;3.47;;
39410;SDS011;26579;43.238;23.124;2023-07-29T06:25:26;5.35;;;2.20;;
39410;SDS011;26579;43.238;23.124;2023-07-29T06:27:52;3.63;;;2.50;;
39410;SDS011;26579;43.238;23.124;2023-07-29T06:30:18;8.70;;;3.83;;
39410;SDS011;26579;43.238;23.124;2023-07-29T06:32:44;4.75;;;2.15;;
39410;SDS011;26579;43.238;23.124;2023-07-29T06:35:09;3.17;;;2.15;;
39410;SDS011;26579;43.238;23.124;2023-07-29T06:37:35;3.85;;;2.10;;
39410;SDS011;26579;43.238;23.124;2023-07-29T06:40:01;4.25;;;2.42;;
39410;SDS011;26579;43.238;23.124;2023-07-29T06:42:26;3.00;;;1.75;;
39410;SDS011;26579;43.238;23.124;2023-07-29T06:44:52;4.60;;;2.28;;
39410;SDS011;26579;43.238;23.124;2023-07-29T06:47:18;5.28;;;2.67;;
39410;SDS011;26579;43.238;23.124;2023-07-29T06:49:45;3.42;;;2.20;;
39410;SDS011;26579;43.238;23.124;2023-07-29T06:52:11;3.17;;;2.30;;
39410;SDS011;26579;43.238;23.124;2023-07-29T06:54:36;3.17;;;1.90;;
39410;SDS011;26579;43.238;23.124;2023-07-29T06:57:02;3.58;;;2.17;;
39410;SDS011;26579;43.238;23.124;2023-07-29T06:59:28;3.10;;;2.15;;
39410;SDS011;26579;43.238;23.124;2023-07-29T07:01:54;10.57;;;2.20;;
39410;SDS011;26579;43.238;23.124;2023-07-29T07:04:19;3.75;;;2.40;;
39410;SDS011;26579;43.238;23.124;2023-07-29T07:06:45;2.45;;;1.85;;
39410;SDS011;26579;43.238;23.124;2023-07-29T07:09:11;3.08;;;1.85;;
39410;SDS011;26579;43.238;23.124;2023-07-29T07:11:36;3.17;;;1.83;;
39410;SDS011;26579;43.238;23.124;2023-07-29T07:14:02;5.47;;;1.85;;
39410;SDS011;26579;43.238;23.124;2023-07-29T07:16:28;4.15;;;1.80;;
39410;SDS011;26579;43.238;23.124;2023-07-29T07:18:54;2.75;;;1.95;;
39410;SDS011;26579;43.238;23.124;2023-07-29T07:21:19;2.30;;;1.65;;
39410;SDS011;26579;43.238;23.124;2023-07-29T07:23:45;3.22;;;1.83;;
39410;SDS011;26579;43.238;23.124;2023-07-29T07:26:13;3.17;;;1.88;;
39410;SDS011;26579;43.238;23.124;2023-07-29T07:28:44;3.15;;;2.05;;
39410;SDS011;26579;43.238;23.124;2023-07-29T07:31:09;3.55;;;2.15;;
39410;SDS011;26579;43.238;23.124;2023-07-29T07:33:35;3.80;;;1.90;;
39410;SDS011;26579;43.238;23.124;2023-07-29T07:36:01;6.13;;;2.70;;
39410;SDS011;26579;43.238;23.124;2023-07-29T07:38:26;4.82;;;2.33;;
39410;SDS011;26579;43.238;23.124;2023-07-29T07:40:53;3.05;;;2.15;;
39410;SDS011;26579;43.238;23.124;2023-07-29T07:43:19;4.85;;;2.47;;
39410;SDS011;26579;43.238;23.124;2023-07-29T07:45:45;2.83;;;1.95;;
39410;SDS011;26579;43.238;23.124;2023-07-29T07:48:11;3.55;;;2.60;;
39410;SDS011;26579;43.238;23.124;2023-07-29T07:50:36;3.67;;;2.30;;
39410;SDS011;26579;43.238;23.124;2023-07-29T07:53:02;4.80;;;2.20;;
39410;SDS011;26579;43.238;23.124;2023-07-29T07:55:28;3.92;;;2.30;;
39410;SDS011;26579;43.238;23.124;2023-07-29T07:57:53;5.05;;;1.90;;
39410;SDS011;26579;43.238;23.124;2023-07-29T08:00:19;3.90;;;2.20;;
39410;SDS011;26579;43.238;23.124;2023-07-29T08:02:45;5.03;;;1.95;;
39410;SDS011;26579;43.238;23.124;2023-07-29T08:05:10;4.07;;;2.30;;
39410;SDS011;26579;43.238;23.124;2023-07-29T08:07:36;2.80;;;1.95;;
39410;SDS011;26579;43.238;23.124;2023-07-29T08:10:02;3.45;;;1.75;;
39410;SDS011;26579;43.238;23.124;2023-07-29T08:12:27;6.25;;;1.92;;
39410;SDS011;26579;43.238;23.124;2023-07-29T08:14:53;8.10;;;4.18;;
39410;SDS011;26579;43.238;23.124;2023-07-29T08:17:19;5.38;;;3.42;;
39410;SDS011;26579;43.238;23.124;2023-07-29T08:19:44;4.35;;;2.70;;
39410;SDS011;26579;43.238;23.124;2023-07-29T08:22:10;6.43;;;2.50;;
39410;SDS011;26579;43.238;23.124;2023-07-29T08:24:36;3.97;;;1.70;;
39410;SDS011;26579;43.238;23.124;2023-07-29T08:27:01;4.10;;;2.65;;
39410;SDS011;26579;43.238;23.124;2023-07-29T08:29:27;10.50;;;1.90;;
39410;SDS011;26579;43.238;23.124;2023-07-29T08:31:53;4.05;;;1.95;;
39410;SDS011;26579;43.238;23.124;2023-07-29T08:34:18;4.40;;;2.20;;
39410;SDS011;26579;43.238;23.124;2023-07-29T08:36:44;3.65;;;1.77;;
39410;SDS011;26579;43.238;23.124;2023-07-29T08:39:10;4.07;;;1.80;;
39410;SDS011;26579;43.238;23.124;2023-07-29T08:41:46;3.33;;;1.58;;
39410;SDS011;26579;43.238;23.124;2023-07-29T08:44:23;3.22;;;1.92;;
39410;SDS011;26579;43.238;23.124;2023-07-29T08:46:51;3.30;;;2.10;;
39410;SDS011;26579;43.238;23.124;2023-07-29T08:49:17;3.03;;;1.75;;
39410;SDS011;26579;43.238;23.124;2023-07-29T08:51:43;5.90;;;1.75;;
39410;SDS011;26579;43.238;23.124;2023-07-29T08:54:10;3.35;;;1.67;;
39410;SDS011;26579;43.238;23.124;2023-07-29T08:56:36;4.13;;;1.60;;
39410;SDS011;26579;43.238;23.124;2023-07-29T08:59:02;2.50;;;1.50;;
39410;SDS011;26579;43.238;23.124;2023-07-29T09:01:28;2.47;;;1.77;;
39410;SDS011;26579;43.238;23.124;2023-07-29T09:03:54;3.78;;;2.00;;
39410;SDS011;26579;43.238;23.124;2023-07-29T09:06:20;2.58;;;1.27;;
39410;SDS011;26579;43.238;23.124;2023-07-29T09:08:46;1.67;;;1.15;;
39410;SDS011;26579;43.238;23.124;2023-07-29T09:11:16;3.15;;;1.60;;
39410;SDS011;26579;43.238;23.124;2023-07-29T09:13:42;2.42;;;1.40;;
39410;SDS011;26579;43.238;23.124;2023-07-29T09:16:08;5.20;;;1.83;;
39410;SDS011;26579;43.238;23.124;2023-07-29T09:18:34;4.53;;;1.42;;
39410;SDS011;26579;43.238;23.124;2023-07-29T09:21:00;3.88;;;1.50;;
39410;SDS011;26579;43.238;23.124;2023-07-29T09:23:26;3.28;;;1.27;;
39410;SDS011;26579;43.238;23.124;2023-07-29T09:26:00;2.42;;;1.38;;
39410;SDS011;26579;43.238;23.124;2023-07-29T09:28:26;2.78;;;1.30;;
39410;SDS011;26579;43.238;23.124;2023-07-29T09:30:59;1.75;;;1.15;;
39410;SDS011;26579;43.238;23.124;2023-07-29T09:33:28;1.95;;;1.13;;
39410;SDS011;26579;43.238;23.124;2023-07-29T09:35:54;3.58;;;1.45;;
39410;SDS011;26579;43.238;23.124;2023-07-29T09:38:26;2.10;;;1.23;;
39410;SDS011;26579;43.238;23.124;2023-07-29T09:40:54;3.05;;;1.20;;
39410;SDS011;26579;43.238;23.124;2023-07-29T09:43:24;1.88;;;1.08;;
39410;SDS011;26579;43.238;23.124;2023-07-29T09:45:51;4.38;;;1.23;;
39410;SDS011;26579;43.238;23.124;2023-07-29T09:48:19;2.22;;;1.30;;
39410;SDS011;26579;43.238;23.124;2023-07-29T09:50:47;1.92;;;1.20;;
39410;SDS011;26579;43.238;23.124;2023-07-29T09:53:13;3.03;;;1.20;;
39410;SDS011;26579;43.238;23.124;2023-07-29T09:55:39;2.47;;;1.30;;
39410;SDS011;26579;43.238;23.124;2023-07-29T09:58:11;2.22;;;1.30;;
39410;SDS011;26579;43.238;23.124;2023-07-29T10:00:36;2.95;;;1.00;;
39410;SDS011;26579;43.238;23.124;2023-07-29T10:03:03;2.05;;;1.33;;
39410;SDS011;26579;43.238;23.124;2023-07-29T10:05:29;2.42;;;1.38;;
39410;SDS011;26579;43.238;23.124;2023-07-29T10:07:55;2.00;;;1.20;;
39410;SDS011;26579;43.238;23.124;2023-07-29T10:10:21;3.83;;;1.60;;
39410;SDS011;26579;43.238;23.124;2023-07-29T10:12:47;6.15;;;1.70;;
39410;SDS011;26579;43.238;23.124;2023-07-29T10:15:14;1.85;;;1.20;;
39410;SDS011;26579;43.238;23.124;2023-07-29T10:17:40;2.75;;;1.20;;
39410;SDS011;26579;43.238;23.124;2023-07-29T10:20:07;2.35;;;1.10;;
39410;SDS011;26579;43.238;23.124;2023-07-29T10:22:38;3.38;;;1.42;;
39410;SDS011;26579;43.238;23.124;2023-07-29T10:25:07;3.58;;;1.40;;
39410;SDS011;26579;43.238;23.124;2023-07-29T10:28:00;1.83;;;1.25;;
39410;SDS011;26579;43.238;23.124;2023-07-29T10:30:32;2.83;;;1.60;;
39410;SDS011;26579;43.238;23.124;2023-07-29T10:32:59;2.75;;;1.58;;
39410;SDS011;26579;43.238;23.124;2023-07-29T10:35:28;4.25;;;1.30;;
39410;SDS011;26579;43.238;23.124;2023-07-29T10:37:54;3.13;;;1.25;;
39410;SDS011;26579;43.238;23.124;2023-07-29T10:40:21;3.05;;;1.38;;
39410;SDS011;26579;43.238;23.124;2023-07-29T10:43:09;2.30;;;1.52;;
39410;SDS011;26579;43.238;23.124;2023-07-29T10:45:39;2.35;;;1.40;;
39410;SDS011;26579;43.238;23.124;2023-07-29T10:48:08;2.45;;;1.48;;
39410;SDS011;26579;43.238;23.124;2023-07-29T10:53:51;2.20;;;1.40;;
39410;SDS011;26579;43.238;23.124;2023-07-29T10:56:24;2.92;;;1.27;;
39410;SDS011;26579;43.238;23.124;2023-07-29T10:58:54;2.78;;;1.30;;
39410;SDS011;26579;43.238;23.124;2023-07-29T11:01:27;3.65;;;1.65;;
39410;SDS011;26579;43.238;23.124;2023-07-29T11:17:34;3.72;;;1.25;;
39410;SDS011;26579;43.238;23.124;2023-07-29T11:20:02;2.35;;;1.13;;
39410;SDS011;26579;43.238;23.124;2023-07-29T11:22:28;2.80;;;1.25;;
39410;SDS011;26579;43.238;23.124;2023-07-29T11:24:55;1.95;;;1.40;;
39410;SDS011;26579;43.238;23.124;2023-07-29T11:27:21;2.88;;;1.17;;
39410;SDS011;26579;43.238;23.124;2023-07-29T11:29:47;2.65;;;1.40;;
39410;SDS011;26579;43.238;23.124;2023-07-29T11:32:13;2.38;;;1.45;;
39410;SDS011;26579;43.238;23.124;2023-07-29T11:34:41;5.07;;;1.20;;
39410;SDS011;26579;43.238;23.124;2023-07-29T11:37:08;4.18;;;1.35;;
39410;SDS011;26579;43.238;23.124;2023-07-29T11:39:39;2.38;;;1.35;;
39410;SDS011;26579;43.238;23.124;2023-07-29T11:42:11;3.53;;;1.35;;
39410;SDS011;26579;43.238;23.124;2023-07-29T11:44:38;2.78;;;1.30;;
39410;SDS011;26579;43.238;23.124;2023-07-29T11:47:07;2.80;;;1.80;;
39410;SDS011;26579;43.238;23.124;2023-07-29T11:49:34;2.28;;;1.20;;
39410;SDS011;26579;43.238;23.124;2023-07-29T11:52:00;1.48;;;1.00;;
39410;SDS011;26579;43.238;23.124;2023-07-29T11:54:27;2.97;;;1.48;;
39410;SDS011;26579;43.238;23.124;2023-07-29T11:56:53;3.58;;;1.40;;
39410;SDS011;26579;43.238;23.124;2023-07-29T11:59:20;2.15;;;1.08;;
39410;SDS011;26579;43.238;23.124;2023-07-29T12:01:45;3.20;;;1.48;;
39410;SDS011;26579;43.238;23.124;2023-07-29T12:04:11;2.30;;;1.20;;
39410;SDS011;26579;43.238;23.124;2023-07-29T12:06:38;1.85;;;1.02;;
39410;SDS011;26579;43.238;23.124;2023-07-29T12:09:04;2.70;;;1.10;;
39410;SDS011;26579;43.238;23.124;2023-07-29T12:11:30;1.95;;;1.00;;
39410;SDS011;26579;43.238;23.124;2023-07-29T12:13:57;3.08;;;1.48;;
39410;SDS011;26579;43.238;23.124;2023-07-29T12:16:25;2.88;;;1.10;;
39410;SDS011;26579;43.238;23.124;2023-07-29T12:18:51;2.35;;;1.45;;
39410;SDS011;26579;43.238;23.124;2023-07-29T12:21:18;2.83;;;1.30;;
39410;SDS011;26579;43.238;23.124;2023-07-29T12:23:44;1.55;;;1.10;;
39410;SDS011;26579;43.238;23.124;2023-07-29T12:26:10;2.40;;;1.08;;
39410;SDS011;26579;43.238;23.124;2023-07-29T12:28:35;2.25;;;1.20;;
39410;SDS011;26579;43.238;23.124;2023-07-29T12:31:01;2.28;;;1.38;;
39410;SDS011;26579;43.238;23.124;2023-07-29T12:33:30;2.63;;;1.45;;
39410;SDS011;26579;43.238;23.124;2023-07-29T12:36:00;4.13;;;1.50;;
39410;SDS011;26579;43.238;23.124;2023-07-29T12:38:26;2.08;;;1.10;;
39410;SDS011;26579;43.238;23.124;2023-07-29T12:40:52;3.10;;;1.45;;
39410;SDS011;26579;43.238;23.124;2023-07-29T12:43:18;3.63;;;1.35;;
39410;SDS011;26579;43.238;23.124;2023-07-29T12:45:44;5.38;;;1.40;;
39410;SDS011;26579;43.238;23.124;2023-07-29T12:48:10;2.38;;;1.45;;
39410;SDS011;26579;43.238;23.124;2023-07-29T12:50:37;2.17;;;1.13;;
39410;SDS011;26579;43.238;23.124;2023-07-29T12:53:05;1.98;;;1.08;;
39410;SDS011;26579;43.238;23.124;2023-07-29T12:55:32;3.05;;;1.23;;
39410;SDS011;26579;43.238;23.124;2023-07-29T12:57:57;2.83;;;1.45;;
39410;SDS011;26579;43.238;23.124;2023-07-29T13:00:23;1.90;;;1.13;;
39410;SDS011;26579;43.238;23.124;2023-07-29T13:02:49;2.22;;;1.10;;
39410;SDS011;26579;43.238;23.124;2023-07-29T13:05:14;1.70;;;1.00;;
39410;SDS011;26579;43.238;23.124;2023-07-29T13:07:40;1.80;;;1.00;;
39410;SDS011;26579;43.238;23.124;2023-07-29T13:10:07;1.63;;;0.90;;
39410;SDS011;26579;43.238;23.124;2023-07-29T13:12:34;2.13;;;1.30;;
39410;SDS011;26579;43.238;23.124;2023-07-29T13:15:00;1.77;;;0.95;;
39410;SDS011;26579;43.238;23.124;2023-07-29T13:17:26;3.40;;;1.10;;
39410;SDS011;26579;43.238;23.124;2023-07-29T13:19:52;2.85;;;1.10;;
39410;SDS011;26579;43.238;23.124;2023-07-29T13:22:17;3.08;;;1.83;;
39410;SDS011;26579;43.238;23.124;2023-07-29T13:24:44;2.58;;;1.17;;
39410;SDS011;26579;43.238;23.124;2023-07-29T13:27:10;1.83;;;1.00;;
39410;SDS011;26579;43.238;23.124;2023-07-29T13:29:36;2.50;;;1.40;;
39410;SDS011;26579;43.238;23.124;2023-07-29T13:32:01;3.00;;;1.20;;
39410;SDS011;26579;43.238;23.124;2023-07-29T13:34:27;10.73;;;1.60;;
39410;SDS011;26579;43.238;23.124;2023-07-29T13:36:53;1.88;;;1.30;;
39410;SDS011;26579;43.238;23.124;2023-07-29T13:39:19;3.33;;;1.50;;
39410;SDS011;26579;43.238;23.124;2023-07-29T13:41:44;2.30;;;1.30;;
39410;SDS011;26579;43.238;23.124;2023-07-29T13:44:10;2.55;;;1.40;;
39410;SDS011;26579;43.238;23.124;2023-07-29T13:46:36;3.63;;;1.60;;
39410;SDS011;26579;43.238;23.124;2023-07-29T13:49:01;2.83;;;1.60;;
39410;SDS011;26579;43.238;23.124;2023-07-29T13:51:27;2.22;;;1.33;;
39410;SDS011;26579;43.238;23.124;2023-07-29T13:53:52;2.20;;;1.40;;
39410;SDS011;26579;43.238;23.124;2023-07-29T13:56:18;3.58;;;1.25;;
39410;SDS011;26579;43.238;23.124;2023-07-29T13:58:44;2.17;;;1.17;;
39410;SDS011;26579;43.238;23.124;2023-07-29T14:01:09;3.22;;;1.80;;
39410;SDS011;26579;43.238;23.124;2023-07-29T14:03:35;2.72;;;1.48;;
39410;SDS011;26579;43.238;23.124;2023-07-29T14:06:01;4.00;;;2.13;;
39410;SDS011;26579;43.238;23.124;2023-07-29T14:08:27;2.03;;;1.42;;
39410;SDS011;26579;43.238;23.124;2023-07-29T14:10:52;2.00;;;1.20;;
39410;SDS011;26579;43.238;23.124;2023-07-29T14:13:18;2.17;;;1.40;;
39410;SDS011;26579;43.238;23.124;2023-07-29T14:15:44;2.78;;;1.67;;
39410;SDS011;26579;43.238;23.124;2023-07-29T14:18:09;2.63;;;1.58;;
39410;SDS011;26579;43.238;23.124;2023-07-29T14:20:35;3.03;;;1.20;;
39410;SDS011;26579;43.238;23.124;2023-07-29T14:23:00;4.68;;;1.88;;
39410;SDS011;26579;43.238;23.124;2023-07-29T14:25:26;3.75;;;1.92;;
39410;SDS011;26579;43.238;23.124;2023-07-29T14:27:53;2.97;;;1.60;;
39410;SDS011;26579;43.238;23.124;2023-07-29T14:30:19;2.58;;;1.60;;
39410;SDS011;26579;43.238;23.124;2023-07-29T14:32:45;6.63;;;1.92;;
39410;SDS011;26579;43.238;23.124;2023-07-29T14:35:10;3.10;;;1.77;;
39410;SDS011;26579;43.238;23.124;2023-07-29T14:37:36;2.95;;;1.90;;
39410;SDS011;26579;43.238;23.124;2023-07-29T14:40:02;3.55;;;1.88;;
39410;SDS011;26579;43.238;23.124;2023-07-29T14:42:28;2.70;;;1.90;;
39410;SDS011;26579;43.238;23.124;2023-07-29T14:44:54;4.03;;;2.08;;
39410;SDS011;26579;43.238;23.124;2023-07-29T14:47:20;2.47;;;1.67;;
39410;SDS011;26579;43.238;23.124;2023-07-29T14:49:45;3.13;;;1.98;;